createdAt,value
2019-03-12T00:00:49.734Z,4.1
2019-03-12T00:02:50.099Z,4.1
2019-03-12T00:04:49.600Z,3.9
2019-03-12T00:06:49.927Z,4.0
2019-03-12T00:08:50.138Z,4.3
2019-03-12T00:10:50.293Z,4.3
2019-03-12T00:12:49.628Z,4.0
2019-03-12T00:14:49.825Z,4.1
2019-03-12T00:16:50.243Z,4.5
2019-03-12T00:18:50.415Z,4.5
2019-03-12T00:20:49.684Z,4.3
2019-03-12T00:22:49.965Z,3.7
2019-03-12T00:24:50.249Z,3.7
2019-03-12T00:26:49.747Z,3.5
2019-03-12T00:28:50.019Z,3.5
2019-03-12T00:30:50.345Z,3.6
2019-03-12T00:32:49.542Z,3.7
2019-03-12T00:34:50.215Z,3.5
2019-03-12T00:36:49.718Z,3.7
2019-03-12T00:38:49.943Z,3.7
2019-03-12T00:40:50.277Z,3.7
2019-03-12T00:42:50.436Z,3.7
2019-03-12T00:44:49.710Z,3.2
2019-03-12T00:46:50.110Z,3.9
2019-03-12T00:48:50.384Z,3.9
2019-03-12T00:50:49.580Z,3.8
2019-03-12T00:52:49.794Z,3.8
2019-03-12T00:54:50.038Z,3.7
2019-03-12T00:56:50.471Z,3.7
2019-03-12T00:58:49.675Z,4.0
2019-03-12T01:00:49.870Z,3.5
2019-03-12T01:02:50.086Z,3.7
2019-03-12T01:04:49.604Z,3.7
2019-03-12T01:06:50.038Z,3.4
2019-03-12T01:08:50.246Z,3.4
2019-03-12T01:10:50.520Z,3.7
2019-03-12T01:12:49.819Z,3.5
2019-03-12T01:14:50.152Z,3.7
2019-03-12T01:16:50.504Z,3.7
2019-03-12T01:18:49.621Z,3.7
2019-03-12T01:20:49.985Z,3.2
2019-03-12T01:22:50.192Z,3.2
2019-03-12T01:24:50.438Z,3.4
2019-03-12T01:26:49.904Z,3.6
2019-03-12T01:28:50.164Z,3.6
2019-03-12T01:30:50.289Z,3.5
2019-03-12T01:32:49.739Z,3.4
2019-03-12T01:34:50.361Z,3.3
2019-03-12T01:36:49.849Z,3.3
2019-03-12T01:38:50.100Z,3.7
2019-03-12T01:40:50.302Z,3.3
2019-03-12T01:42:52.726Z,3.6
2019-03-12T01:44:50.042Z,3.6
2019-03-12T01:46:50.346Z,3.6
2019-03-12T01:48:49.702Z,3.6
2019-03-12T01:50:49.934Z,3.5
2019-03-12T01:52:50.129Z,3.5
2019-03-12T01:54:50.278Z,3.5
2019-03-12T01:56:49.639Z,3.5
2019-03-12T01:58:49.938Z,3.6
2019-03-12T02:00:50.173Z,4.0
2019-03-12T02:02:50.387Z,3.7
2019-03-12T02:04:50.077Z,3.8
2019-03-12T02:06:50.457Z,3.8
2019-03-12T02:08:49.709Z,3.8
2019-03-12T02:10:49.974Z,3.5
2019-03-12T02:12:50.339Z,4.1
2019-03-12T02:14:49.689Z,4.3
2019-03-12T02:16:50.143Z,4.3
2019-03-12T02:18:50.403Z,3.8
2019-03-12T02:20:49.753Z,4.2
2019-03-12T02:22:50.239Z,4.2
2019-03-12T02:24:53.291Z,4.2
2019-03-12T02:26:49.780Z,4.7
2019-03-12T02:28:50.143Z,4.3
2019-03-12T02:30:50.452Z,3.9
2019-03-12T02:32:49.883Z,4.1
2019-03-12T02:34:49.551Z,4.1
2019-03-12T02:36:49.984Z,4.4
2019-03-12T02:38:50.272Z,4.6
2019-03-12T02:40:50.438Z,4.2
2019-03-12T02:42:49.688Z,4.2
2019-03-12T02:44:49.955Z,4.2
2019-03-12T02:46:50.459Z,4.9
2019-03-12T02:48:49.763Z,4.9
2019-03-12T02:50:50.034Z,5.6
2019-03-12T02:52:50.345Z,5.9
2019-03-12T02:54:49.624Z,5.9
2019-03-12T02:56:49.960Z,5.9
2019-03-12T02:58:50.272Z,6.8
2019-03-12T03:00:49.598Z,6.9
2019-03-12T03:02:49.815Z,7.3
2019-03-12T03:04:54.509Z,7.3
2019-03-12T03:06:50.052Z,7.6
2019-03-12T03:08:49.564Z,7.4
2019-03-12T03:10:49.885Z,7.6
2019-03-12T03:12:50.205Z,7.9
2019-03-12T03:14:50.485Z,7.9
2019-03-12T03:16:50.013Z,8.5
2019-03-12T03:18:50.281Z,8.3
2019-03-12T03:20:49.534Z,8.3
2019-03-12T03:22:49.926Z,8.3
2019-03-12T03:24:50.131Z,9.2
2019-03-12T03:26:49.585Z,9.4
2019-03-12T03:28:49.858Z,9.7
2019-03-12T03:30:50.210Z,9.7
2019-03-12T03:32:49.624Z,9.7
2019-03-12T03:34:50.277Z,9.5
2019-03-12T03:36:49.863Z,10.3
2019-03-12T03:38:50.164Z,10.0
2019-03-12T03:40:50.343Z,10.0
2019-03-12T03:42:49.828Z,10.2
2019-03-12T03:44:50.340Z,9.3
2019-03-12T03:46:49.723Z,9.4
2019-03-12T03:48:50.046Z,9.4
2019-03-12T03:50:50.362Z,9.8
2019-03-12T03:52:49.662Z,9.8
2019-03-12T03:54:50.130Z,10.0
2019-03-12T03:56:49.567Z,10.4
2019-03-12T03:58:49.942Z,10.4
2019-03-12T04:00:50.249Z,9.8
2019-03-12T04:02:49.663Z,9.8
2019-03-12T04:04:50.253Z,10.2
2019-03-12T04:06:49.709Z,9.9
2019-03-12T04:08:50.087Z,9.2
2019-03-12T04:10:50.497Z,9.2
2019-03-12T04:12:49.999Z,9.1
2019-03-12T04:14:50.276Z,9.0
2019-03-12T04:16:49.651Z,9.0
2019-03-12T04:18:50.162Z,8.4
2019-03-12T04:20:50.393Z,8.4
2019-03-12T04:22:49.770Z,8.2
2019-03-12T04:24:50.016Z,7.1
2019-03-12T04:26:50.445Z,6.9
2019-03-12T04:28:49.772Z,6.8
2019-03-12T04:30:50.203Z,6.8
2019-03-12T04:32:50.437Z,6.1
2019-03-12T04:34:50.128Z,5.7
2019-03-12T04:36:49.597Z,5.2
2019-03-12T04:38:49.967Z,4.8
2019-03-12T04:40:50.299Z,4.8
2019-03-12T04:42:50.482Z,4.7
2019-03-12T04:44:49.827Z,4.2
2019-03-12T04:46:50.176Z,4.6
2019-03-12T04:48:50.402Z,4.5
2019-03-12T04:50:49.553Z,4.5
2019-03-12T04:52:49.795Z,4.8
2019-03-12T04:54:50.054Z,4.4
2019-03-12T04:56:50.393Z,4.1
2019-03-12T04:58:49.681Z,4.1
2019-03-12T05:00:49.971Z,4.0
2019-03-12T05:02:50.172Z,4.5
2019-03-12T05:04:49.968Z,3.8
2019-03-12T05:06:50.401Z,4.4
2019-03-12T05:08:49.755Z,4.4
2019-03-12T05:10:50.078Z,4.4
2019-03-12T05:12:50.248Z,5.0
2019-03-12T05:14:50.501Z,5.0
2019-03-12T05:16:49.883Z,4.0
2019-03-12T05:18:50.174Z,4.2
2019-03-12T05:20:50.384Z,4.4
2019-03-12T05:22:49.731Z,4.2
2019-03-12T05:24:49.912Z,4.2
2019-03-12T05:26:49.869Z,4.7
2019-03-12T05:28:50.020Z,4.4
2019-03-12T05:30:50.265Z,6.3
2019-03-12T05:32:50.507Z,4.5
2019-03-12T05:34:50.215Z,4.8
2019-03-12T05:36:49.658Z,4.8
2019-03-12T05:38:50.050Z,4.3
2019-03-12T05:40:50.336Z,4.7
2019-03-12T05:42:49.614Z,4.9
2019-03-12T05:44:49.918Z,4.9
2019-03-12T05:46:50.320Z,4.7
2019-03-12T05:48:49.604Z,4.7
2019-03-12T05:50:49.819Z,4.9
2019-03-12T05:52:50.031Z,5.0
2019-03-12T05:54:50.240Z,5.0
2019-03-12T05:56:49.682Z,5.0
2019-03-12T05:58:49.904Z,5.0
2019-03-12T06:00:50.220Z,4.9
2019-03-12T06:02:50.397Z,4.9
2019-03-12T06:04:50.024Z,4.7
2019-03-12T06:06:50.412Z,4.7
2019-03-12T06:08:49.574Z,5.3
2019-03-12T06:10:49.745Z,4.7
2019-03-12T06:12:50.002Z,4.6
2019-03-12T06:14:50.148Z,4.6
2019-03-12T06:16:50.494Z,5.0
2019-03-12T06:18:49.752Z,4.8
2019-03-12T06:20:50.112Z,5.0
2019-03-12T06:22:50.429Z,5.1
2019-03-12T06:24:49.720Z,5.1
2019-03-12T06:26:50.224Z,5.3
2019-03-12T06:28:50.488Z,4.9
2019-03-12T06:30:49.735Z,4.8
2019-03-12T06:32:50.007Z,4.8
2019-03-12T06:34:49.731Z,4.6
2019-03-12T06:36:50.446Z,4.9
2019-03-12T06:38:49.757Z,4.9
2019-03-12T06:40:50.056Z,4.8
2019-03-12T06:42:50.225Z,4.8
2019-03-12T06:44:50.466Z,4.4
2019-03-12T06:46:49.805Z,4.3
2019-03-12T06:48:50.384Z,5.0
2019-03-12T06:50:49.631Z,4.5
2019-03-12T06:52:49.865Z,4.9
2019-03-12T06:54:50.151Z,4.9
2019-03-12T06:56:49.537Z,4.4
2019-03-12T06:58:49.743Z,4.8
2019-03-12T07:00:50.037Z,4.8
2019-03-12T07:02:50.269Z,4.8
2019-03-12T07:04:49.976Z,4.9
2019-03-12T07:06:49.675Z,4.7
2019-03-12T07:08:49.936Z,4.7
2019-03-12T07:10:50.180Z,4.6
2019-03-12T07:12:50.379Z,4.6
2019-03-12T07:14:49.623Z,4.6
2019-03-12T07:16:50.062Z,4.9
2019-03-12T07:18:50.429Z,4.3
2019-03-12T07:20:49.683Z,4.7
2019-03-12T07:22:49.903Z,4.4
2019-03-12T07:24:50.165Z,4.4
2019-03-12T07:26:49.885Z,5.1
2019-03-12T07:28:51.027Z,5.0
2019-03-12T07:30:50.290Z,4.8
2019-03-12T07:32:49.791Z,4.8
2019-03-12T07:34:50.352Z,4.9
2019-03-12T07:36:49.729Z,4.7
2019-03-12T07:38:49.960Z,5.6
2019-03-12T07:40:50.172Z,5.1
2019-03-12T07:42:50.433Z,5.1
2019-03-12T07:44:49.794Z,4.8
2019-03-12T07:46:50.131Z,4.6
2019-03-12T07:48:50.403Z,4.9
2019-03-12T07:50:49.623Z,4.9
2019-03-12T07:52:49.819Z,4.9
2019-03-12T07:54:50.116Z,4.9
2019-03-12T07:56:49.956Z,4.9
2019-03-12T07:58:50.220Z,5.1
2019-03-12T08:00:49.735Z,4.8
2019-03-12T08:02:50.074Z,4.8
2019-03-12T08:04:49.768Z,5.2
2019-03-12T08:06:50.244Z,5.2
2019-03-12T08:08:49.655Z,5.7
2019-03-12T08:10:50.461Z,5.2
2019-03-12T08:12:49.561Z,5.2
2019-03-12T08:14:49.780Z,5.5
2019-03-12T08:16:50.164Z,5.5
2019-03-12T08:18:50.430Z,5.9
2019-03-12T08:20:49.623Z,5.9
2019-03-12T08:22:49.895Z,5.3
2019-03-12T08:24:50.106Z,5.8
2019-03-12T08:26:50.212Z,5.6
2019-03-12T08:28:50.356Z,5.1
2019-03-12T08:30:49.615Z,5.1
2019-03-12T08:32:49.918Z,5.4
2019-03-12T08:34:50.487Z,5.2
2019-03-12T08:36:50.250Z,5.2
2019-03-12T08:38:50.449Z,5.2
2019-03-12T08:40:53.027Z,5.4
2019-03-12T08:42:55.170Z,5.4
2019-03-12T08:44:50.464Z,5.4
2019-03-12T08:46:49.963Z,6.0
2019-03-12T08:48:50.211Z,6.0
2019-03-12T08:50:50.388Z,5.5
2019-03-12T08:52:49.572Z,5.3
2019-03-12T08:54:54.967Z,5.4
2019-03-12T08:56:49.786Z,5.4
2019-03-12T08:58:50.115Z,5.4
2019-03-12T09:00:50.273Z,5.0
2019-03-12T09:02:49.536Z,4.9
2019-03-12T09:04:50.383Z,5.6
2019-03-12T09:06:49.751Z,5.4
2019-03-12T09:08:50.028Z,5.4
2019-03-12T09:10:50.176Z,5.5
2019-03-12T09:12:49.914Z,6.2
2019-03-12T09:14:49.652Z,6.2
2019-03-12T09:16:50.036Z,5.5
2019-03-12T09:18:49.540Z,5.5
2019-03-12T09:20:49.970Z,5.7
2019-03-12T09:22:50.146Z,5.7
2019-03-12T09:24:50.313Z,5.6
2019-03-12T09:26:50.367Z,5.5
2019-03-12T09:28:49.643Z,5.5
2019-03-12T09:30:49.860Z,5.3
2019-03-12T09:32:50.504Z,5.3
2019-03-12T09:34:49.991Z,5.3
2019-03-12T09:36:50.461Z,5.4
2019-03-12T09:38:49.757Z,5.8
2019-03-12T09:40:50.441Z,4.6
2019-03-12T09:42:49.798Z,4.4
2019-03-12T09:44:50.028Z,4.4
2019-03-12T09:46:50.534Z,4.2
2019-03-12T09:48:49.674Z,4.3
2019-03-12T09:50:49.951Z,5.1
2019-03-12T09:52:50.195Z,5.1
2019-03-12T09:54:49.541Z,4.0
2019-03-12T09:56:49.984Z,4.3
2019-03-12T09:58:49.933Z,4.2
2019-03-12T10:00:50.137Z,3.9
2019-03-12T10:02:50.221Z,3.9
2019-03-12T10:04:49.915Z,3.6
2019-03-12T10:06:50.233Z,3.6
2019-03-12T10:08:49.607Z,3.9
2019-03-12T10:10:49.812Z,3.7
2019-03-12T10:12:50.102Z,3.6
2019-03-12T10:14:50.291Z,4.4
2019-03-12T10:16:49.810Z,4.4
2019-03-12T10:18:50.137Z,3.7
2019-03-12T10:20:50.344Z,3.7
2019-03-12T10:22:49.695Z,3.8
2019-03-12T10:24:49.866Z,3.9
2019-03-12T10:26:50.204Z,3.5
2019-03-12T10:28:49.869Z,3.3
2019-03-12T10:30:50.240Z,3.5
2019-03-12T10:32:49.917Z,3.2
2019-03-12T10:34:50.471Z,3.2
2019-03-12T10:36:50.255Z,3.8
2019-03-12T10:38:50.553Z,4.1
2019-03-12T10:40:49.749Z,3.6
2019-03-12T10:42:49.971Z,3.3
2019-03-12T10:44:50.324Z,3.3
2019-03-12T10:46:49.668Z,3.6
2019-03-12T10:48:49.875Z,3.1
2019-03-12T10:50:49.995Z,3.4
2019-03-12T10:52:50.326Z,3.0
2019-03-12T10:54:50.516Z,3.0
2019-03-12T10:56:49.953Z,3.0
2019-03-12T10:58:50.260Z,2.8
2019-03-12T11:00:49.594Z,2.8
2019-03-12T11:02:50.071Z,2.7
2019-03-12T11:04:49.613Z,2.7
2019-03-12T11:06:50.029Z,2.4
2019-03-12T11:08:50.196Z,3.3
2019-03-12T11:10:50.530Z,2.7
2019-03-12T11:12:49.851Z,2.6
2019-03-12T11:14:50.072Z,2.6
2019-03-12T11:16:50.452Z,2.5
2019-03-12T11:18:49.664Z,2.5
2019-03-12T11:20:49.892Z,3.1
2019-03-12T11:22:50.151Z,3.1
2019-03-12T11:24:50.388Z,2.8
2019-03-12T11:26:49.863Z,2.6
2019-03-12T11:28:50.265Z,2.8
2019-03-12T11:30:50.479Z,3.1
2019-03-12T11:32:49.864Z,3.1
2019-03-12T11:34:49.642Z,2.9
2019-03-12T11:36:50.117Z,3.1
2019-03-12T11:38:49.541Z,2.7
2019-03-12T11:40:49.941Z,2.5
2019-03-12T11:42:50.219Z,2.5
2019-03-12T11:44:49.648Z,3.0
2019-03-12T11:46:50.348Z,2.7
2019-03-12T11:48:49.749Z,2.8
2019-03-12T11:50:50.049Z,2.7
2019-03-12T11:52:58.764Z,2.7
2019-03-12T11:54:49.674Z,2.7
2019-03-12T11:56:49.650Z,2.6
2019-03-12T11:58:50.062Z,2.8
2019-03-12T12:00:50.322Z,2.8
2019-03-12T12:03:00.637Z,2.8
2019-03-12T12:04:50.158Z,2.7
2019-03-12T12:06:50.538Z,3.0
2019-03-12T12:08:50.032Z,2.6
2019-03-12T12:10:50.282Z,2.6
2019-03-12T12:12:50.433Z,2.7
2019-03-12T12:14:49.746Z,2.8
2019-03-12T12:16:50.103Z,2.8
2019-03-12T12:18:50.195Z,2.7
2019-03-12T12:20:50.425Z,2.9
2019-03-12T12:22:49.615Z,2.9
2019-03-12T12:24:49.860Z,2.6
2019-03-12T12:26:50.214Z,2.9
2019-03-12T12:28:49.573Z,2.9
2019-03-12T12:30:49.805Z,2.9
2019-03-12T12:32:49.984Z,2.7
2019-03-12T12:34:50.467Z,2.9
2019-03-12T12:36:49.893Z,3.1
2019-03-12T12:38:50.110Z,3.1
2019-03-12T12:40:50.303Z,3.3
2019-03-12T12:42:50.427Z,2.8
2019-03-12T12:44:49.657Z,2.8
2019-03-12T12:46:49.988Z,3.1
2019-03-12T12:48:53.550Z,3.1
2019-03-12T12:51:03.325Z,2.8
2019-03-12T12:52:50.060Z,2.4
2019-03-12T12:54:50.360Z,2.4
2019-03-12T12:56:49.789Z,2.8
2019-03-12T12:58:50.020Z,2.8
2019-03-12T13:00:50.343Z,2.6
2019-03-12T13:02:49.593Z,2.8
2019-03-12T13:04:50.108Z,2.8
2019-03-12T13:06:50.442Z,2.3
2019-03-12T13:08:49.623Z,2.2
2019-03-12T13:10:49.825Z,2.2
2019-03-12T13:12:50.027Z,2.2
2019-03-12T13:14:50.235Z,2.0
2019-03-12T13:16:49.564Z,2.1
2019-03-12T13:18:49.724Z,2.1
2019-03-12T13:20:49.993Z,2.1
2019-03-12T13:22:50.149Z,2.0
2019-03-12T13:24:50.398Z,2.3
2019-03-12T13:26:49.835Z,2.3
2019-03-12T13:28:50.044Z,2.3
2019-03-12T13:30:50.324Z,2.2
2019-03-12T13:32:50.556Z,2.2
2019-03-12T13:34:50.315Z,2.2
2019-03-12T13:36:49.642Z,2.2
2019-03-12T13:38:50.013Z,2.1
2019-03-12T13:40:50.343Z,2.4
2019-03-12T13:42:49.731Z,2.1
2019-03-12T13:44:49.992Z,2.4
2019-03-12T13:46:50.558Z,2.4
2019-03-12T13:48:49.995Z,2.2
2019-03-12T13:50:50.517Z,2.1
2019-03-12T13:52:50.151Z,2.0
2019-03-12T13:54:49.621Z,2.2
2019-03-12T13:56:50.018Z,2.2
2019-03-12T13:58:50.292Z,1.9
2019-03-12T14:00:49.543Z,2.3
2019-03-12T14:02:49.708Z,1.9
2019-03-12T14:04:50.349Z,1.9
2019-03-12T14:06:49.688Z,1.9
2019-03-12T14:08:49.911Z,1.9
2019-03-12T14:10:50.177Z,2.0
2019-03-12T14:12:50.381Z,2.1
2019-03-12T14:14:49.621Z,1.9
2019-03-12T14:16:50.019Z,1.9
2019-03-12T14:18:50.294Z,1.9
2019-03-12T14:20:50.509Z,1.8
2019-03-12T14:22:50.359Z,1.7
2019-03-12T14:24:49.567Z,1.7
2019-03-12T14:26:49.961Z,1.8
2019-03-12T14:28:52.920Z,1.8
2019-03-12T14:30:50.300Z,1.8
2019-03-12T14:32:50.453Z,1.8
2019-03-12T14:34:50.158Z,1.9
2019-03-12T14:36:50.497Z,1.9
2019-03-12T14:38:49.855Z,2.2
2019-03-12T14:40:50.180Z,1.8
2019-03-12T14:42:49.554Z,1.8
2019-03-12T14:44:49.866Z,1.8
2019-03-12T14:46:50.185Z,1.9
2019-03-12T14:48:50.468Z,2.6
2019-03-12T14:50:49.975Z,1.9
2019-03-12T14:52:50.331Z,2.1
2019-03-12T14:54:50.430Z,2.1
2019-03-12T14:56:49.845Z,2.3
2019-03-12T14:58:51.525Z,2.2
2019-03-12T15:00:49.757Z,2.1
2019-03-12T15:02:49.995Z,1.9
2019-03-12T15:04:49.629Z,1.9
2019-03-12T15:06:49.985Z,1.9
2019-03-12T15:08:50.270Z,1.7
2019-03-12T15:10:50.503Z,2.1
2019-03-12T15:12:49.723Z,2.1
2019-03-12T15:14:49.931Z,2.1
2019-03-12T15:16:50.287Z,2.1
2019-03-12T15:18:52.351Z,2.1
2019-03-12T15:20:49.663Z,1.8
2019-03-12T15:22:49.547Z,2.4
2019-03-12T15:24:50.168Z,2.4
2019-03-12T15:26:50.225Z,2.2
2019-03-12T15:28:50.466Z,2.4
2019-03-12T15:30:49.643Z,2.2
2019-03-12T15:32:49.962Z,2.2
2019-03-12T15:34:50.511Z,2.2
2019-03-12T15:36:49.923Z,2.3
2019-03-12T15:38:50.181Z,2.3
2019-03-12T15:40:50.413Z,1.8
2019-03-12T15:42:49.588Z,1.8
2019-03-12T15:44:49.779Z,2.2
2019-03-12T15:46:50.169Z,1.8
2019-03-12T15:48:50.396Z,1.8
2019-03-12T15:50:49.690Z,2.1
2019-03-12T15:52:49.941Z,2.1
2019-03-12T15:54:50.123Z,2.1
2019-03-12T15:56:49.576Z,2.0
2019-03-12T15:58:50.072Z,2.0
2019-03-12T16:00:50.287Z,2.0
2019-03-12T16:02:50.496Z,2.0
2019-03-12T16:04:49.990Z,1.8
2019-03-12T16:07:01.478Z,1.9
2019-03-12T16:08:49.563Z,2.0
2019-03-12T16:10:58.674Z,2.0
2019-03-12T16:12:49.991Z,2.0
2019-03-12T16:14:50.288Z,1.9
2019-03-12T16:16:49.576Z,2.0
2019-03-12T16:18:49.798Z,2.0
2019-03-12T16:20:50.011Z,1.9
2019-03-12T16:22:50.276Z,1.9
2019-03-12T16:24:50.468Z,1.8
2019-03-12T16:26:49.814Z,2.0
2019-03-12T16:28:50.022Z,1.9
2019-03-12T16:30:50.265Z,1.8
2019-03-12T16:32:50.471Z,1.8
2019-03-12T16:34:50.218Z,2.1
2019-03-12T16:36:49.574Z,1.6
2019-03-12T16:38:49.792Z,1.8
2019-03-12T16:40:50.046Z,1.8
2019-03-12T16:42:50.407Z,1.9
2019-03-12T16:44:49.615Z,1.7
2019-03-12T16:46:50.118Z,1.8
2019-03-12T16:48:50.398Z,1.8
2019-03-12T16:50:49.692Z,1.8
2019-03-12T16:52:49.984Z,1.9
2019-03-12T16:54:51.757Z,2.0
2019-03-12T16:56:50.156Z,2.4
2019-03-12T16:58:50.366Z,2.4
2019-03-12T17:00:49.654Z,2.1
2019-03-12T17:02:49.908Z,1.6
2019-03-12T17:04:50.498Z,2.3
2019-03-12T17:06:49.962Z,2.3
2019-03-12T17:08:50.396Z,2.3
2019-03-12T17:11:02.599Z,1.9
2019-03-12T17:12:49.778Z,2.1
2019-03-12T17:14:50.053Z,2.0
2019-03-12T17:16:50.505Z,1.9
2019-03-12T17:18:49.676Z,1.9
2019-03-12T17:20:49.926Z,1.9
2019-03-12T17:22:50.216Z,2.3
2019-03-12T17:24:50.496Z,2.1
2019-03-12T17:26:49.972Z,2.1
2019-03-12T17:28:50.247Z,1.9
2019-03-12T17:30:49.601Z,2.8
2019-03-12T17:32:49.812Z,2.4
2019-03-12T17:34:50.455Z,1.9
2019-03-12T17:36:49.868Z,2.1
2019-03-12T17:38:50.028Z,2.1
2019-03-12T17:40:50.276Z,2.0
2019-03-12T17:42:49.632Z,2.2
2019-03-12T17:44:49.883Z,2.2
2019-03-12T17:46:50.360Z,2.3
2019-03-12T17:48:49.723Z,2.2
2019-03-12T17:50:49.987Z,2.1
2019-03-12T17:52:50.373Z,1.8
2019-03-12T17:54:49.655Z,1.8
2019-03-12T17:56:50.167Z,1.9
2019-03-12T17:58:50.399Z,2.2
2019-03-12T18:00:49.653Z,2.0
2019-03-12T18:02:49.949Z,2.2
2019-03-12T18:04:50.442Z,2.1
2019-03-12T18:06:49.847Z,2.1
2019-03-12T18:08:50.093Z,2.0
2019-03-12T18:10:50.405Z,2.1
2019-03-12T18:12:49.742Z,2.1
2019-03-12T18:14:50.003Z,2.3
2019-03-12T18:16:50.412Z,2.3
2019-03-12T18:18:49.666Z,2.0
2019-03-12T18:20:49.920Z,2.1
2019-03-12T18:22:50.273Z,1.9
2019-03-12T18:24:50.477Z,1.9
2019-03-12T18:26:49.872Z,1.8
2019-03-12T18:28:50.116Z,2.0
2019-03-12T18:30:50.389Z,1.7
2019-03-12T18:32:49.609Z,1.9
2019-03-12T18:34:50.216Z,1.9
2019-03-12T18:36:49.559Z,1.9
2019-03-12T18:38:53.241Z,2.2
2019-03-12T18:40:50.432Z,2.2
2019-03-12T18:42:49.621Z,2.1
2019-03-12T18:44:49.888Z,2.1
2019-03-12T18:46:50.278Z,2.1
2019-03-12T18:48:50.525Z,2.1
2019-03-12T18:50:49.803Z,3.1
2019-03-12T18:52:50.083Z,3.1
2019-03-12T18:54:50.390Z,2.5
2019-03-12T18:56:49.727Z,2.5
2019-03-12T18:58:49.924Z,2.0
2019-03-12T19:00:50.180Z,2.0
2019-03-12T19:02:50.488Z,2.3
2019-03-12T19:04:50.162Z,2.3
2019-03-12T19:06:50.492Z,2.2
2019-03-12T19:08:49.757Z,2.3
2019-03-12T19:10:49.939Z,2.5
2019-03-12T19:12:50.378Z,2.5
2019-03-12T19:14:49.599Z,2.4
2019-03-12T19:16:49.995Z,1.8
2019-03-12T19:18:50.263Z,2.1
2019-03-12T19:20:50.467Z,2.2
2019-03-12T19:22:49.686Z,2.1
2019-03-12T19:24:49.889Z,2.1
2019-03-12T19:26:50.202Z,2.3
2019-03-12T19:28:50.456Z,2.3
2019-03-12T19:30:49.653Z,2.1
2019-03-12T19:32:49.929Z,2.1
2019-03-12T19:34:50.455Z,2.5
2019-03-12T19:36:50.090Z,2.0
2019-03-12T19:38:50.383Z,2.1
2019-03-12T19:40:49.590Z,2.1
2019-03-12T19:42:49.885Z,2.1
2019-03-12T19:44:50.212Z,2.1
2019-03-12T19:46:50.540Z,2.2
2019-03-12T19:48:49.870Z,2.0
2019-03-12T19:50:50.003Z,2.1
2019-03-12T19:52:50.331Z,2.1
2019-03-12T19:54:49.654Z,2.1
2019-03-12T19:56:50.065Z,2.1
2019-03-12T19:58:50.403Z,2.0
2019-03-12T20:00:49.693Z,1.9
2019-03-12T20:02:49.923Z,1.9
2019-03-12T20:04:50.451Z,1.9
2019-03-12T20:06:49.861Z,2.0
2019-03-12T20:08:50.144Z,2.2
2019-03-12T20:10:50.427Z,2.0
2019-03-12T20:12:49.745Z,2.0
2019-03-12T20:14:49.994Z,2.0
2019-03-12T20:16:50.411Z,2.1
2019-03-12T20:18:49.540Z,1.9
2019-03-12T20:20:49.846Z,1.9
2019-03-12T20:22:50.161Z,2.1
2019-03-12T20:24:50.395Z,2.1
2019-03-12T20:26:49.897Z,2.0
2019-03-12T20:28:50.097Z,2.0
2019-03-12T20:30:49.707Z,2.0
2019-03-12T20:32:50.001Z,2.0
2019-03-12T20:34:49.586Z,2.0
2019-03-12T20:36:49.977Z,2.1
2019-03-12T20:38:50.126Z,1.9
2019-03-12T20:40:50.398Z,1.9
2019-03-12T20:42:49.625Z,1.7
2019-03-12T20:44:49.949Z,1.8
2019-03-12T20:46:50.335Z,2.6
2019-03-12T20:48:49.979Z,1.7
2019-03-12T20:50:50.235Z,1.7
2019-03-12T20:52:50.001Z,1.8
2019-03-12T20:54:50.333Z,1.6
2019-03-12T20:56:52.060Z,1.8
2019-03-12T20:58:50.448Z,1.6
2019-03-12T21:00:49.705Z,1.6
2019-03-12T21:02:49.850Z,1.7
2019-03-12T21:04:50.441Z,1.5
2019-03-12T21:06:50.039Z,1.8
2019-03-12T21:08:50.312Z,1.8
2019-03-12T21:10:50.041Z,1.7
2019-03-12T21:12:50.270Z,1.7
2019-03-12T21:14:49.531Z,1.6
2019-03-12T21:16:49.904Z,1.6
2019-03-12T21:18:49.785Z,1.6
2019-03-12T21:20:49.934Z,1.7
2019-03-12T21:22:50.185Z,1.7
2019-03-12T21:24:50.339Z,1.6
2019-03-12T21:26:49.706Z,1.8
2019-03-12T21:28:49.925Z,1.8
2019-03-12T21:30:49.643Z,2.7
2019-03-12T21:32:49.853Z,1.8
2019-03-12T21:34:50.479Z,2.0
2019-03-12T21:36:49.862Z,1.8
2019-03-12T21:38:50.123Z,1.8
2019-03-12T21:40:50.323Z,1.8
2019-03-12T21:42:50.508Z,1.6
2019-03-12T21:44:49.819Z,1.7
2019-03-12T21:46:50.180Z,1.7
2019-03-12T21:48:50.475Z,1.7
2019-03-12T21:50:49.730Z,1.8
2019-03-12T21:52:49.989Z,1.6
2019-03-12T21:54:50.405Z,1.7
2019-03-12T21:56:49.888Z,1.9
2019-03-12T21:58:50.059Z,1.9
2019-03-12T22:00:50.351Z,1.8
2019-03-12T22:02:49.660Z,1.9
2019-03-12T22:04:50.206Z,1.8
2019-03-12T22:06:50.425Z,1.9
2019-03-12T22:08:49.670Z,1.9
2019-03-12T22:10:49.850Z,1.7
2019-03-12T22:12:50.243Z,1.7
2019-03-12T22:14:50.458Z,1.6
2019-03-12T22:16:49.866Z,1.6
2019-03-12T22:18:50.170Z,3.1
2019-03-12T22:20:51.646Z,3.1
2019-03-12T22:22:49.932Z,2.0
2019-03-12T22:24:50.008Z,1.9
2019-03-12T22:26:50.301Z,1.9
2019-03-12T22:28:50.480Z,2.0
2019-03-12T22:30:49.774Z,1.9
2019-03-12T22:32:49.995Z,1.8
2019-03-12T22:34:49.617Z,1.7
2019-03-12T22:36:49.979Z,1.7
2019-03-12T22:38:50.119Z,1.9
2019-03-12T22:40:50.387Z,2.1
2019-03-12T22:42:49.633Z,1.8
2019-03-12T22:44:49.863Z,1.8
2019-03-12T22:46:50.281Z,1.8
2019-03-12T22:48:49.542Z,1.8
2019-03-12T22:50:49.729Z,1.8
2019-03-12T22:52:50.026Z,1.7
2019-03-12T22:54:50.161Z,1.7
2019-03-12T22:56:49.691Z,1.7
2019-03-12T22:58:49.898Z,1.9
2019-03-12T23:00:50.112Z,1.9
2019-03-12T23:02:50.396Z,1.9
2019-03-12T23:04:50.042Z,1.9
2019-03-12T23:06:50.472Z,1.9
2019-03-12T23:08:49.903Z,1.8
2019-03-12T23:10:50.255Z,2.0
2019-03-12T23:12:50.400Z,2.3
2019-03-12T23:14:49.669Z,2.3
2019-03-12T23:16:49.977Z,1.9
2019-03-12T23:18:50.189Z,1.8
2019-03-12T23:20:50.462Z,1.8
2019-03-12T23:22:52.601Z,1.9
2019-03-12T23:24:49.832Z,1.8
2019-03-12T23:26:50.218Z,1.9
2019-03-12T23:28:50.371Z,2.1
2019-03-12T23:30:49.595Z,2.1
2019-03-12T23:32:49.951Z,2.0
2019-03-12T23:34:49.620Z,1.9
2019-03-12T23:36:50.049Z,1.9
2019-03-12T23:38:50.257Z,1.9
2019-03-12T23:40:49.542Z,1.8
2019-03-12T23:42:49.702Z,1.8
2019-03-12T23:44:50.070Z,2.1
2019-03-12T23:46:50.482Z,1.9
2019-03-12T23:48:49.716Z,1.9
2019-03-12T23:50:49.975Z,1.8
2019-03-12T23:52:50.175Z,1.8
2019-03-12T23:54:50.340Z,2.0
2019-03-12T23:56:49.740Z,1.7
2019-03-12T23:58:49.959Z,1.8
